Time;durP1;ratioP1;P1;durP2;ratioP2;P2;SDS_P1;SDS_P2;PMS_P1;PMS_P2;Temp;Humidity;BMP_temperature;BMP_pressure;BME280_temperature;BME280_humidity;BME280_pressure;Samples;Min_cycle;Max_cycle;Signal;HPM_P1;HPM_P2
2022/06/20 00:01:09;;;;;;;4.32;1.33;;;;;;;23.67;43.99;101250.19;5072605;28;20493;-68
2022/06/20 00:03:41;;;;;;;4.32;1.20;;;;;;;23.67;43.83;101246.69;5074201;28;20028;-68
2022/06/20 00:06:12;;;;;;;3.97;1.10;;;;;;;23.65;43.60;101244.16;5074068;28;20021;-68
2022/06/20 00:08:37;;;;;;;4.78;1.33;;;;;;;23.65;43.75;101246.00;5073594;28;20028;-68
2022/06/20 00:11:02;;;;;;;3.45;1.20;;;;;;;23.65;43.93;101246.00;5074229;28;20020;-69
2022/06/20 00:13:31;;;;;;;7.30;1.10;;;;;;;23.64;43.86;101253.16;5073825;28;20032;-68
2022/06/20 00:16:00;;;;;;;3.25;0.98;;;;;;;23.63;44.00;101255.97;5072839;28;20099;-68
2022/06/20 00:18:26;;;;;;;5.57;1.08;;;;;;;23.63;43.81;101256.78;5073587;28;20048;-68
2022/06/20 00:20:51;;;;;;;2.88;0.90;;;;;;;23.63;43.99;101270.09;5072993;28;20468;-68
2022/06/20 00:23:16;;;;;;;4.05;1.20;;;;;;;23.63;43.94;101282.56;5073607;28;20028;-68
2022/06/20 00:25:42;;;;;;;4.23;1.20;;;;;;;23.63;44.12;101309.19;5073714;28;20037;-69
2022/06/20 00:28:09;;;;;;;4.68;1.17;;;;;;;23.62;43.98;101318.97;5072707;28;20285;-69
2022/06/20 00:30:35;;;;;;;3.65;0.90;;;;;;;23.61;44.00;101319.97;5073524;28;20035;-69
2022/06/20 00:33:04;;;;;;;3.88;0.90;;;;;;;23.62;44.15;101329.59;5073481;28;20039;-69
2022/06/20 00:35:29;;;;;;;4.50;1.20;;;;;;;23.62;43.86;101340.25;5072562;28;20511;-69
2022/06/20 00:37:58;;;;;;;3.45;1.05;;;;;;;23.61;43.70;101353.72;5073605;28;20028;-68
2022/06/20 00:40:34;;;;;;;4.10;1.20;;;;;;;23.61;43.73;101367.03;5073387;28;20020;-69
2022/06/20 00:43:03;;;;;;;5.68;1.20;;;;;;;23.60;43.93;101382.13;5072703;28;20030;-69
2022/06/20 00:45:33;;;;;;;3.08;1.00;;;;;;;23.60;44.20;101429.19;5073064;28;20024;-69
2022/06/20 00:48:09;;;;;;;2.95;1.10;;;;;;;23.60;44.14;101461.13;5073529;28;20044;-68
2022/06/20 00:50:34;;;;;;;4.22;1.23;;;;;;;23.60;43.94;101493.06;5072652;28;20115;-69
2022/06/20 00:53:12;;;;;;;7.03;1.23;;;;;;;23.60;43.77;101527.63;5073136;28;20108;-69
2022/06/20 00:56:11;;;;;;;4.43;1.10;;;;;;;23.58;44.10;101522.47;5073147;28;20431;-68
2022/06/20 00:58:49;;;;;;;4.63;1.23;;;;;;;23.58;44.04;101479.91;5065916;28;20051;-69
2022/06/20 01:01:17;;;;;;;3.70;1.27;;;;;;;23.58;44.01;101468.41;5073068;28;20028;-69
2022/06/20 01:03:51;;;;;;;3.80;1.08;;;;;;;23.57;44.09;101443.63;5072261;28;20503;-69
2022/06/20 01:06:21;;;;;;;;;;;;;;;23.55;44.11;101435.78;5073133;28;20487;-69
2022/06/20 01:08:51;;;;;;;3.33;1.08;;;;;;;23.57;44.32;101440.13;5073138;28;19955;-68
2022/06/20 01:11:23;;;;;;;3.53;1.08;;;;;;;23.57;44.08;101418.84;5071952;28;20411;-68
2022/06/20 01:13:50;;;;;;;3.95;1.08;;;;;;;23.55;43.91;101405.69;5072888;28;20116;-68
2022/06/20 01:16:15;;;;;;;3.05;1.02;;;;;;;23.55;44.22;101389.72;5072673;28;20040;-68
2022/06/20 01:18:45;;;;;;;4.40;1.00;;;;;;;23.54;44.35;101388.91;5072223;28;20021;-68
2022/06/20 01:21:18;;;;;;;4.45;1.10;;;;;;;23.53;44.05;101379.25;5072447;28;20522;-69
2022/06/20 01:24:01;;;;;;;3.75;0.95;;;;;;;23.54;44.31;101369.44;5073318;28;20028;-69
2022/06/20 01:26:41;;;;;;;4.78;1.17;;;;;;;23.52;44.31;101360.75;5072020;28;20031;-68
2022/06/20 01:29:09;;;;;;;3.35;0.93;;;;;;;23.52;43.94;101353.59;5072037;28;20152;-69
2022/06/20 01:31:43;;;;;;;3.90;1.17;;;;;;;23.53;44.23;101341.16;5071857;28;20024;-68
2022/06/20 01:34:11;;;;;;;4.38;1.10;;;;;;;23.53;44.04;101343.81;5072540;28;20040;-69
2022/06/20 01:39:24;;;;;;;4.07;1.02;;;;;;;23.52;44.19;101336.81;5071666;28;20053;-69
2022/06/20 01:44:37;;;;;;;3.95;1.10;;;;;;;23.51;44.05;101327.16;5072661;28;20027;-68
2022/06/20 01:47:03;;;;;;;5.50;1.08;;;;;;;23.50;44.18;101314.88;5071878;28;20052;-68
2022/06/20 01:49:31;;;;;;;2.53;1.02;;;;;;;23.50;44.26;101318.34;5072242;28;20094;-68
2022/06/20 01:52:12;;;;;;;4.38;1.15;;;;;;;23.48;44.24;101315.00;5072679;28;20036;-69
2022/06/20 01:54:46;;;;;;;3.90;1.00;;;;;;;23.49;44.00;101308.69;5072580;28;20039;-69
2022/06/20 01:57:15;;;;;;;3.00;1.05;;;;;;;23.49;44.07;101311.34;5072250;28;20047;-69
2022/06/20 01:59:58;;;;;;;3.72;1.05;;;;;;;23.48;44.14;101303.50;5071767;28;20025;-69
2022/06/20 02:02:26;;;;;;;5.20;1.10;;;;;;;23.48;44.01;101312.34;5072204;28;20056;-69
2022/06/20 02:04:52;;;;;;;4.40;1.15;;;;;;;23.48;43.79;101304.38;5072306;28;20028;-69
2022/06/20 02:07:18;;;;;;;3.88;1.38;;;;;;;23.46;43.96;101292.19;5071400;28;20024;-69
2022/06/20 02:09:44;;;;;;;3.25;1.05;;;;;;;23.47;44.10;101288.56;5072458;28;20024;-69
2022/06/20 02:12:11;;;;;;;4.30;1.10;;;;;;;23.46;43.87;101279.72;5072085;28;20467;-69
2022/06/20 02:14:42;;;;;;;5.72;1.30;;;;;;;23.45;44.09;101278.06;5071430;28;20040;-69
2022/06/20 02:17:21;;;;;;;5.40;1.45;;;;;;;23.45;44.07;101275.41;5072200;28;20024;-69
2022/06/20 02:19:51;;;;;;;4.95;1.30;;;;;;;23.45;43.85;101254.13;5072230;28;20468;-69
2022/06/20 02:22:19;;;;;;;4.07;1.08;;;;;;;23.43;44.01;101258.78;5071417;28;20021;-69
2022/06/20 02:24:48;;;;;;;5.03;1.08;;;;;;;23.44;44.12;101262.25;5072292;28;20052;-69
2022/06/20 02:27:22;;;;;;;6.22;1.00;;;;;;;23.43;43.88;101261.44;5071818;28;20064;-69
2022/06/20 02:29:48;;;;;;;4.07;0.98;;;;;;;23.43;44.04;101257.91;5072155;28;20020;-69
2022/06/20 02:32:23;;;;;;;4.55;1.30;;;;;;;23.41;43.80;101259.91;5072041;28;20029;-69
2022/06/20 02:34:49;;;;;;;3.20;1.00;;;;;;;23.41;44.04;101260.72;5071210;28;20043;-69
2022/06/20 02:37:23;;;;;;;5.40;1.20;;;;;;;23.41;43.99;101263.38;5071872;28;20051;-69
2022/06/20 02:39:52;;;;;;;3.85;1.30;;;;;;;23.41;44.09;101263.38;5074128;28;20029;-68
2022/06/20 02:42:28;;;;;;;3.00;1.08;;;;;;;23.40;43.93;101259.06;5074528;28;20032;-69
2022/06/20 02:44:55;;;;;;;5.75;1.20;;;;;;;23.42;44.22;101261.59;5075921;28;20033;-69
2022/06/20 02:47:23;;;;;;;4.85;1.30;;;;;;;23.40;44.09;101243.13;5075395;28;20017;-69
2022/06/20 02:49:54;;;;;;;4.10;1.15;;;;;;;23.39;43.85;101241.44;5075109;28;20040;-69
2022/06/20 02:52:24;;;;;;;5.50;1.30;;;;;;;23.39;43.75;101232.63;5075296;28;20090;-69
2022/06/20 02:54:52;;;;;;;3.60;1.13;;;;;;;23.38;44.19;101225.63;5075867;28;20031;-69
2022/06/20 02:57:31;;;;;;;2.90;1.00;;;;;;;23.38;43.72;101215.81;5074654;28;20024;-69
2022/06/20 03:00:02;;;;;;;4.53;1.00;;;;;;;23.36;43.81;101202.66;5075602;28;20027;-69
2022/06/20 03:02:42;;;;;;;4.30;0.90;;;;;;;23.36;43.97;101207.16;5075245;28;20043;-69
2022/06/20 03:05:08;;;;;;;4.25;1.02;;;;;;;23.36;43.90;101207.16;5075125;28;20537;-69
2022/06/20 03:07:37;;;;;;;4.30;1.00;;;;;;;23.35;43.70;101211.66;5075630;28;20020;-69
2022/06/20 03:10:25;;;;;;;3.17;1.08;;;;;;;23.35;44.15;101218.78;5074553;28;20365;-69
2022/06/20 03:12:51;;;;;;;3.65;1.00;;;;;;;23.34;44.00;101217.13;5075357;28;20085;-69
2022/06/20 03:15:17;;;;;;;4.57;1.08;;;;;;;23.32;43.79;101222.59;5074874;28;20369;-68
2022/06/20 03:17:45;;;;;;;5.30;1.10;;;;;;;23.34;43.83;101222.44;5074401;28;20025;-68
2022/06/20 03:20:13;;;;;;;3.47;1.00;;;;;;;23.32;43.68;101227.03;5074986;28;20146;-68
2022/06/20 03:22:46;;;;;;;4.38;1.10;;;;;;;23.32;44.07;101238.53;5075156;28;20021;-68
2022/06/20 03:25:14;;;;;;;3.63;1.00;;;;;;;23.32;44.01;101245.66;5073940;28;20130;-68
2022/06/20 03:27:40;;;;;;;3.97;1.17;;;;;;;23.31;43.59;101251.97;5074656;28;20052;-68
2022/06/20 03:30:38;;;;;;;4.55;1.13;;;;;;;23.32;44.08;101240.34;5074866;28;20078;-68
2022/06/20 03:33:07;;;;;;;4.82;0.85;;;;;;;23.31;43.79;101241.34;5039707;28;20032;-69
2022/06/20 03:35:35;;;;;;;2.92;0.85;;;;;;;23.31;44.01;101255.47;5074974;28;20468;-69
2022/06/20 03:38:06;;;;;;;6.07;1.20;;;;;;;23.30;44.00;101266.25;5074077;28;20039;-68
2022/06/20 03:40:33;;;;;;;3.67;0.93;;;;;;;23.29;43.73;101273.41;5074445;28;20028;-68
2022/06/20 03:43:00;;;;;;;2.78;0.80;;;;;;;23.27;43.71;101279.84;5074617;28;20016;-69
2022/06/20 03:45:30;;;;;;;8.35;1.10;;;;;;;23.30;43.87;101292.84;5073631;28;20136;-68
2022/06/20 03:48:06;;;;;;;3.03;0.90;;;;;;;23.28;43.87;101286.84;5074643;28;20492;-68
2022/06/20 03:50:38;;;;;;;3.65;0.80;;;;;;;23.28;43.35;101303.63;5073737;28;20142;-69
2022/06/20 03:53:31;;;;;;;2.40;0.75;;;;;;;23.28;43.88;101310.78;5073744;28;20029;-69
2022/06/20 03:56:20;;;;;;;4.60;1.15;;;;;;;23.27;43.47;101323.22;5074497;28;20368;-68
2022/06/20 03:58:57;;;;;;;3.13;0.98;;;;;;;23.26;43.54;101313.59;5074140;28;20035;-69
2022/06/20 04:01:35;;;;;;;2.60;0.80;;;;;;;23.26;43.48;101308.25;5074089;28;20024;-68
2022/06/20 04:04:07;;;;;;;2.60;0.90;;;;;;;23.24;43.54;101315.56;5074437;28;20027;-68
2022/06/20 04:06:43;;;;;;;2.50;0.88;;;;;;;23.25;43.59;101314.56;5073386;28;20073;-68
2022/06/20 04:12:22;;;;;;;5.40;1.17;;;;;;;23.24;43.62;101320.03;5074384;28;20039;-68
2022/06/20 04:14:59;;;;;;;4.13;1.00;;;;;;;23.24;43.53;101320.88;5073498;28;20494;-68
2022/06/20 04:20:32;;;;;;;4.97;0.98;;;;;;;23.23;43.63;101337.81;5073234;28;20083;-68
2022/06/20 04:23:01;;;;;;;;;;;;;;;23.22;43.52;101340.59;5074566;28;20032;-68
2022/06/20 04:26:01;;;;;;;3.40;0.90;;;;;;;23.21;43.76;101342.44;5073602;28;19998;-68
2022/06/20 04:28:52;;;;;;;4.13;0.93;;;;;;;23.21;43.64;101339.78;5029849;28;20230;-68
2022/06/20 04:31:33;;;;;;;5.05;1.40;;;;;;;23.22;43.63;101351.25;5073566;28;20027;-68
2022/06/20 04:34:18;;;;;;;3.67;1.00;;;;;;;23.21;43.75;101346.91;5072888;28;20028;-69
2022/06/20 04:36:54;;;;;;;3.75;1.00;;;;;;;23.22;43.33;101356.56;5073571;28;20033;-68
2022/06/20 04:39:30;;;;;;;3.30;0.93;;;;;;;23.20;43.75;101354.06;5073403;28;20020;-68
2022/06/20 04:42:04;;;;;;;2.80;0.88;;;;;;;23.20;43.42;101353.22;5072705;28;20024;-69
2022/06/20 04:44:48;;;;;;;;;;;;;;;23.20;43.64;101358.53;5073427;28;20369;-68
2022/06/20 04:47:22;;;;;;;2.42;0.75;;;;;;;23.19;43.41;101357.69;5073169;28;19912;-68
2022/06/20 04:49:47;;;;;;;3.53;0.80;;;;;;;23.18;43.86;101366.66;5072613;28;20024;-68
2022/06/20 04:52:18;;;;;;;3.00;1.02;;;;;;;23.19;43.70;101376.28;5073051;28;20077;-68
2022/06/20 04:54:43;;;;;;;5.65;0.93;;;;;;;23.17;43.54;101373.78;5073010;28;20032;-68
2022/06/20 04:57:13;;;;;;;3.55;0.90;;;;;;;23.18;43.92;101371.97;5072069;28;20029;-69
2022/06/20 04:59:40;;;;;;;4.28;1.00;;;;;;;23.18;43.83;101369.31;5073062;28;20024;-69
2022/06/20 05:02:17;;;;;;;4.03;1.10;;;;;;;23.18;43.78;101378.13;5072097;28;20079;-69
2022/06/20 05:04:46;;;;;;;3.35;1.00;;;;;;;23.17;44.09;101373.78;5073194;28;20387;-68
2022/06/20 05:07:18;;;;;;;3.25;0.75;;;;;;;23.16;44.01;101379.25;5072671;28;20024;-68
2022/06/20 05:09:49;;;;;;;3.67;0.90;;;;;;;23.16;43.68;101376.59;5072131;28;20478;-69
2022/06/20 05:12:23;;;;;;;3.70;0.88;;;;;;;23.16;44.07;101380.09;5072629;28;20423;-69
2022/06/20 05:15:23;;;;;;;4.57;0.95;;;;;;;23.16;43.83;101379.25;5072983;28;20149;-69
2022/06/20 05:17:50;;;;;;;4.78;1.00;;;;;;;23.16;43.65;101382.75;5045277;28;20037;-68
2022/06/20 05:20:26;;;;;;;2.50;0.82;;;;;;;23.15;43.77;101386.38;5072534;28;20031;-68
2022/06/20 05:23:02;;;;;;;6.28;1.25;;;;;;;23.14;44.06;101387.34;5072685;28;20043;-69
2022/06/20 05:25:31;;;;;;;2.97;0.98;;;;;;;23.16;44.22;101395.19;5071856;28;20064;-68
2022/06/20 05:28:04;;;;;;;4.57;1.10;;;;;;;23.15;43.80;101405.00;5072476;28;20041;-68
2022/06/20 05:30:33;;;;;;;3.20;0.88;;;;;;;23.15;44.04;101390.88;5071559;28;20033;-69
2022/06/20 05:33:12;;;;;;;5.07;1.52;;;;;;;23.15;43.90;101388.22;5072472;28;20044;-68
2022/06/20 05:35:48;;;;;;;3.95;1.02;;;;;;;23.14;44.02;101382.03;5072558;28;20116;-68
2022/06/20 05:38:34;;;;;;;2.85;1.00;;;;;;;23.14;43.85;101392.69;5071598;28;20090;-68
2022/06/20 05:41:04;;;;;;;4.88;1.33;;;;;;;23.14;43.80;101367.91;5072729;28;20043;-68
2022/06/20 05:43:31;;;;;;;3.60;1.00;;;;;;;23.14;43.71;101365.25;5071947;28;20016;-68
2022/06/20 05:46:37;;;;;;;5.10;1.10;;;;;;;23.13;43.98;101371.56;5071758;28;20460;-68
2022/06/20 05:49:07;;;;;;;3.50;1.05;;;;;;;23.13;43.95;101379.53;5072504;28;20082;-68
2022/06/20 05:51:37;;;;;;;3.17;0.90;;;;;;;23.12;44.06;101378.69;5071078;28;20490;-69
2022/06/20 05:54:10;;;;;;;3.78;1.00;;;;;;;23.12;43.81;101384.00;5072183;28;20444;-69
2022/06/20 05:56:41;;;;;;;7.85;1.10;;;;;;;23.13;44.12;101395.47;5072505;28;20097;-69
2022/06/20 05:59:35;;;;;;;4.60;1.10;;;;;;;23.11;43.74;101392.97;5071746;28;20040;-69
2022/06/20 06:02:16;;;;;;;4.18;0.90;;;;;;;23.11;43.69;101394.78;5048383;28;20484;-69
2022/06/20 06:04:50;;;;;;;4.75;0.90;;;;;;;23.11;43.73;101390.31;5071433;28;20032;-69
2022/06/20 06:07:20;;;;;;;5.00;0.98;;;;;;;23.11;43.88;101397.44;5071325;28;20102;-69
2022/06/20 06:09:58;;;;;;;4.22;1.00;;;;;;;23.12;43.81;101401.81;5072426;28;20387;-70
2022/06/20 06:12:33;;;;;;;3.85;0.98;;;;;;;23.11;43.63;101395.63;5070582;28;20033;-70
2022/06/20 06:15:09;;;;;;;4.20;1.00;;;;;;;23.11;43.93;101392.97;5074461;28;20111;-69
2022/06/20 06:17:41;;;;;;;6.68;1.15;;;;;;;23.12;43.87;101393.81;5076282;28;20025;-69
2022/06/20 06:20:19;;;;;;;4.78;1.08;;;;;;;23.13;44.15;101395.47;5075358;28;20035;-69
2022/06/20 06:22:48;;;;;;;6.55;1.25;;;;;;;23.12;44.25;101393.81;5075913;28;20017;-68
2022/06/20 06:25:29;;;;;;;5.03;1.10;;;;;;;23.11;44.04;101392.13;5075575;28;20452;-68
2022/06/20 06:28:01;;;;;;;5.38;1.20;;;;;;;23.12;43.87;101405.28;5075174;28;20041;-68
2022/06/20 06:30:39;;;;;;;3.60;0.88;;;;;;;23.13;44.01;101400.78;5075658;28;20021;-68
2022/06/20 06:33:20;;;;;;;7.20;1.27;;;;;;;23.12;43.81;101399.97;5075803;28;20012;-68
2022/06/20 06:35:50;;;;;;;3.28;1.00;;;;;;;23.12;43.82;101404.47;5075465;28;20029;-67
2022/06/20 06:38:24;;;;;;;3.92;1.00;;;;;;;23.11;43.77;101403.59;5075632;28;20020;-68
2022/06/20 06:40:51;;;;;;;;;;;;;;;23.11;44.08;101410.75;5075436;28;20048;-68
2022/06/20 06:43:29;;;;;;;3.05;1.00;;;;;;;23.11;43.96;101414.22;5075468;28;20378;-68
2022/06/20 06:46:00;;;;;;;4.18;0.85;;;;;;;23.11;44.10;101416.06;5075685;28;20056;-67
2022/06/20 06:48:39;;;;;;;3.85;0.82;;;;;;;23.11;43.83;101424.88;5074689;28;20062;-68
2022/06/20 06:51:10;;;;;;;2.83;0.80;;;;;;;23.12;43.75;101425.72;5075671;28;20016;-67
2022/06/20 06:53:50;;;;;;;3.42;1.20;;;;;;;23.12;43.56;101434.53;5075447;28;20028;-68
2022/06/20 06:56:37;;;;;;;3.63;0.93;;;;;;;23.13;43.71;101433.56;5074516;28;20435;-68
2022/06/20 06:59:18;;;;;;;4.53;1.00;;;;;;;23.13;43.73;101435.34;5075814;28;20103;-68
2022/06/20 07:01:48;;;;;;;4.20;1.00;;;;;;;23.13;43.58;101435.34;5074705;28;20446;-68
2022/06/20 07:04:45;;;;;;;3.38;0.90;;;;;;;23.13;44.05;101433.56;5075225;28;20375;-68
2022/06/20 07:07:28;;;;;;;4.50;0.88;;;;;;;23.14;43.83;101447.69;5041697;28;20127;-68
2022/06/20 07:09:55;;;;;;;4.70;1.15;;;;;;;23.14;43.65;101445.03;5074579;28;20513;-67
2022/06/20 07:12:46;;;;;;;6.82;1.10;;;;;;;23.14;43.46;101448.50;5075021;28;20049;-68
2022/06/20 07:15:19;;;;;;;4.28;1.10;;;;;;;23.14;43.58;101453.00;5063353;28;20028;-68
2022/06/20 07:17:57;;;;;;;2.17;0.65;;;;;;;23.14;43.76;101458.31;5074394;28;20380;-68
2022/06/20 07:20:32;;;;;;;6.45;1.00;;;;;;;23.13;43.65;101462.81;5074953;28;20048;-68
2022/06/20 07:23:02;;;;;;;3.00;0.80;;;;;;;23.13;43.79;101460.16;5074398;28;20032;-69
2022/06/20 07:25:40;;;;;;;3.47;0.80;;;;;;;23.12;43.53;101466.44;5073804;28;20032;-69
2022/06/20 07:28:43;;;;;;;4.82;1.13;;;;;;;23.12;43.46;101469.09;5074915;28;20522;-68
2022/06/20 07:31:37;;;;;;;5.72;1.00;;;;;;;23.12;43.63;101461.13;5073889;28;20028;-69
2022/06/20 07:34:14;;;;;;;5.85;1.10;;;;;;;23.12;43.68;101452.31;5074666;28;20036;-68
2022/06/20 07:37:02;;;;;;;3.35;0.98;;;;;;;23.13;43.58;101457.47;5074992;28;20086;-69
2022/06/20 07:39:34;;;;;;;4.03;1.13;;;;;;;23.13;43.30;101459.28;5074272;28;20028;-64
2022/06/20 07:42:27;;;;;;;8.45;1.02;;;;;;;23.14;43.34;101460.97;5074670;28;20032;-66
2022/06/20 07:45:19;;;;;;;5.35;1.10;;;;;;;23.15;43.28;101460.81;5074042;28;20031;-65
2022/06/20 07:47:51;;;;;;;3.08;0.90;;;;;;;23.15;43.53;101465.31;5074459;28;20472;-65
2022/06/20 07:50:42;;;;;;;3.05;1.00;;;;;;;23.13;43.17;101465.47;5074328;28;20036;-65
2022/06/20 07:53:22;;;;;;;5.40;1.25;;;;;;;23.14;43.38;101469.78;5073891;28;20037;-65
2022/06/20 07:55:53;;;;;;;5.95;1.23;;;;;;;23.14;43.19;101464.47;5074515;28;20027;-65
2022/06/20 07:58:35;;;;;;;3.40;1.00;;;;;;;23.15;43.25;101470.63;5073416;28;20074;-66
2022/06/20 08:01:04;;;;;;;3.42;1.30;;;;;;;23.14;43.48;101477.75;5074552;28;20487;-65
2022/06/20 08:04:05;;;;;;;4.63;0.82;;;;;;;23.12;43.37;101469.09;5074189;28;20028;-65
2022/06/20 08:06:42;;;;;;;2.88;1.00;;;;;;;23.14;43.15;101475.09;5030210;28;20072;-63
2022/06/20 08:09:24;;;;;;;4.07;1.30;;;;;;;23.15;42.99;101475.94;5074202;28;20064;-65
2022/06/20 08:12:09;;;;;;;3.63;0.90;;;;;;;23.15;43.34;101471.47;5074292;28;20086;-64
2022/06/20 08:14:43;;;;;;;4.15;0.90;;;;;;;23.16;43.15;101474.94;5073996;28;20392;-65
2022/06/20 08:17:11;;;;;;;5.00;1.23;;;;;;;23.15;42.86;101479.44;5073770;28;20507;-65
2022/06/20 08:19:39;;;;;;;3.47;0.90;;;;;;;23.15;43.15;101481.28;5073254;28;20013;-64
2022/06/20 08:22:24;;;;;;;4.03;1.20;;;;;;;23.15;43.03;101482.09;5073826;28;20040;-66
2022/06/20 08:24:55;;;;;;;3.47;1.10;;;;;;;23.15;42.99;101479.44;5073951;28;20024;-65
2022/06/20 08:27:44;;;;;;;5.95;1.27;;;;;;;23.15;43.07;101481.28;5072664;28;20400;-66
2022/06/20 08:30:14;;;;;;;5.03;1.25;;;;;;;23.14;42.80;101485.72;5073621;28;20028;-65
2022/06/20 08:32:54;;;;;;;6.43;1.38;;;;;;;23.13;42.38;101483.22;5073965;28;20040;-65
2022/06/20 08:35:39;;;;;;;18.73;2.92;;;;;;;23.12;42.07;101489.53;5072682;28;20123;-65
2022/06/20 08:38:44;;;;;;;11.00;2.33;;;;;;;23.10;42.24;101484.34;5073369;28;20101;-65
2022/06/20 08:41:19;;;;;;;12.60;2.33;;;;;;;23.10;41.93;101489.66;5070901;28;20041;-63
2022/06/20 08:44:21;;;;;;;17.67;2.47;;;;;;;23.10;41.93;101489.66;5073517;28;20491;-63
2022/06/20 08:47:18;;;;;;;21.45;2.80;;;;;;;23.11;42.40;101491.31;5073705;28;20033;-63
2022/06/20 08:50:22;;;;;;;11.85;2.10;;;;;;;23.12;42.90;101497.50;5073301;28;20029;-62
2022/06/20 08:53:05;;;;;;;14.05;2.53;;;;;;;23.13;42.90;101496.50;5060844;28;20029;-63
2022/06/20 08:56:20;;;;;;;13.48;2.10;;;;;;;23.12;42.51;101502.81;5072174;28;20025;-63
2022/06/20 08:58:57;;;;;;;16.10;2.83;;;;;;;23.13;42.85;101507.13;5073334;28;20040;-63
2022/06/20 09:01:49;;;;;;;11.73;2.67;;;;;;;23.13;42.78;101517.78;5072234;28;20052;-63
2022/06/20 09:04:43;;;;;;;7.90;2.13;;;;;;;23.13;42.64;101518.63;5073020;28;20079;-63
2022/06/20 09:07:44;;;;;;;14.05;2.78;;;;;;;23.13;42.62;101523.09;5072943;28;20085;-63
2022/06/20 09:10:09;;;;;;;15.63;2.33;;;;;;;23.13;42.59;101523.94;5072222;28;20025;-62
2022/06/20 09:12:37;;;;;;;11.17;1.80;;;;;;;23.13;42.43;101518.63;5073100;28;20030;-63
2022/06/20 09:15:31;;;;;;;10.50;2.10;;;;;;;23.12;42.64;101519.59;5072942;28;20025;-62
2022/06/20 09:18:25;;;;;;;9.45;2.28;;;;;;;23.14;42.27;101519.47;5073054;28;20063;-62
2022/06/20 09:21:12;;;;;;;9.95;1.90;;;;;;;23.14;42.44;101525.59;5073043;28;20094;-63
2022/06/20 09:24:02;;;;;;;9.63;1.75;;;;;;;23.14;42.42;101516.81;5072224;28;20059;-63
2022/06/20 09:26:30;;;;;;;6.60;1.83;;;;;;;23.14;42.29;101533.59;5072485;28;20024;-63
2022/06/20 09:29:15;;;;;;;9.77;1.80;;;;;;;23.14;42.48;101536.25;5072474;28;20063;-62
2022/06/20 09:32:09;;;;;;;6.82;2.03;;;;;;;23.13;42.26;101531.94;5072198;28;20028;-64
2022/06/20 09:35:04;;;;;;;7.68;1.95;;;;;;;23.14;42.13;101532.75;5069564;28;20070;-62
2022/06/20 09:37:38;;;;;;;;;;;;;;;23.13;42.33;101531.94;5061180;28;20032;-62
2022/06/20 09:40:37;;;;;;;11.13;1.77;;;;;;;23.13;42.51;101531.06;5072878;28;19955;-62
2022/06/20 09:43:35;;;;;;;7.70;2.15;;;;;;;23.13;42.69;101526.59;5072649;28;20032;-62
2022/06/20 09:46:44;;;;;;;16.25;2.30;;;;;;;23.13;42.52;101528.41;5072836;28;20036;-62
2022/06/20 09:49:25;;;;;;;10.57;2.13;;;;;;;23.13;42.19;101531.94;5050290;28;20048;-62
2022/06/20 09:52:07;;;;;;;10.43;2.45;;;;;;;23.13;42.10;101531.94;5071919;28;20459;-62
2022/06/20 09:54:39;;;;;;;10.93;2.13;;;;;;;23.13;42.03;101525.75;5072338;28;20032;-62
2022/06/20 09:57:27;;;;;;;7.60;2.10;;;;;;;23.12;42.05;101524.91;5072592;28;20024;-62
2022/06/20 10:00:15;;;;;;;10.10;2.40;;;;;;;23.13;42.26;101523.09;5071975;28;20143;-62
2022/06/20 10:03:16;;;;;;;7.75;2.35;;;;;;;23.13;41.87;101523.09;5072567;28;20021;-62
2022/06/20 10:05:47;;;;;;;6.32;2.03;;;;;;;23.12;41.74;101522.25;5071636;28;20516;-63
2022/06/20 10:08:30;;;;;;;7.38;2.10;;;;;;;23.11;41.49;101523.22;5072164;28;20111;-63
2022/06/20 10:10:58;;;;;;;9.52;2.28;;;;;;;23.12;42.04;101524.09;5073191;28;20031;-62
2022/06/20 10:13:51;;;;;;;9.38;2.17;;;;;;;23.13;42.05;101533.72;5072877;28;20107;-64
2022/06/20 10:16:34;;;;;;;8.05;2.00;;;;;;;23.14;41.81;101530.09;5073219;28;20056;-64
2022/06/20 10:19:18;;;;;;;9.38;1.95;;;;;;;23.13;41.47;101531.06;5072571;28;20498;-65
2022/06/20 10:22:14;;;;;;;5.38;1.85;;;;;;;23.12;41.22;101530.22;5073312;28;20056;-67
2022/06/20 10:24:51;;;;;;;7.32;1.88;;;;;;;23.13;41.61;101534.59;5074292;28;20086;-64
2022/06/20 10:27:51;;;;;;;6.00;1.60;;;;;;;23.14;41.65;101530.94;5072249;28;20078;-65
2022/06/20 10:30:35;;;;;;;9.15;1.85;;;;;;;23.14;41.00;101540.72;5073727;28;20028;-62
2022/06/20 10:33:22;;;;;;;7.85;1.92;;;;;;;23.13;41.20;101558.50;5071227;28;20029;-62
2022/06/20 10:36:06;;;;;;;5.85;1.90;;;;;;;23.14;40.95;101554.03;5072088;28;20036;-62
2022/06/20 10:38:45;;;;;;;6.97;1.95;;;;;;;23.13;41.33;101549.69;5071786;28;20424;-62
2022/06/20 10:41:20;;;;;;;6.32;2.33;;;;;;;23.14;41.34;101551.38;5071050;28;20054;-62
2022/06/20 10:44:04;;;;;;;5.90;1.80;;;;;;;23.14;41.49;101554.03;5072159;28;20032;-62
2022/06/20 10:46:39;;;;;;;6.72;2.30;;;;;;;23.14;41.70;101559.34;5071887;28;20033;-62
2022/06/20 10:49:24;;;;;;;6.43;1.90;;;;;;;23.14;41.72;101560.16;5071426;28;20036;-62
2022/06/20 10:52:07;;;;;;;4.68;2.00;;;;;;;23.15;41.44;101563.69;5071857;28;20549;-62
2022/06/20 10:54:50;;;;;;;9.93;2.08;;;;;;;23.15;40.82;101582.31;5071020;28;20029;-62
2022/06/20 10:57:45;;;;;;;4.82;1.88;;;;;;;23.15;41.22;101574.31;5071719;28;20067;-62
2022/06/20 11:00:13;;;;;;;6.38;2.33;;;;;;;23.14;41.09;101568.16;5072400;28;20595;-62
2022/06/20 11:02:58;;;;;;;6.88;1.77;;;;;;;23.15;41.59;101572.50;5074640;28;20032;-62
2022/06/20 11:05:46;;;;;;;4.85;1.60;;;;;;;23.16;41.75;101583.97;5075309;28;20043;-63
2022/06/20 11:08:29;;;;;;;6.15;1.98;;;;;;;23.17;41.62;101583.00;5074398;28;20472;-62
2022/06/20 11:11:30;;;;;;;5.07;1.80;;;;;;;23.17;41.56;101578.50;5075579;28;20033;-62
2022/06/20 11:14:10;;;;;;;5.10;1.73;;;;;;;23.17;41.67;101585.66;5075270;28;20098;-63
2022/06/20 11:17:09;;;;;;;5.00;1.90;;;;;;;23.19;41.46;101599.63;5074493;28;20032;-63
2022/06/20 11:19:48;;;;;;;4.32;1.90;;;;;;;23.20;41.78;101595.19;5075126;28;20077;-62
2022/06/20 11:22:38;;;;;;;5.78;1.75;;;;;;;23.18;41.65;101588.16;5074260;28;20041;-63
2022/06/20 11:25:17;;;;;;;4.50;1.80;;;;;;;23.20;41.50;101593.34;5074979;28;20530;-63
2022/06/20 11:28:12;;;;;;;5.25;1.42;;;;;;;23.21;41.48;101580.88;5074995;28;20048;-62
2022/06/20 11:31:07;;;;;;;4.68;1.60;;;;;;;23.21;41.68;101586.19;5073995;28;20102;-63
2022/06/20 11:34:08;;;;;;;5.00;1.70;;;;;;;23.22;41.41;101577.25;5074423;28;20353;-62
2022/06/20 11:36:59;;;;;;;3.85;1.75;;;;;;;23.22;41.46;101580.75;5073957;28;20059;-62
2022/06/20 11:39:44;;;;;;;4.40;1.60;;;;;;;23.22;41.38;101578.09;5074613;28;20036;-63
2022/06/20 11:42:19;;;;;;;4.88;1.60;;;;;;;23.22;41.50;101579.91;5074368;28;20060;-63
2022/06/20 11:45:06;;;;;;;4.00;1.52;;;;;;;23.22;41.42;101583.41;5074108;28;20093;-63
2022/06/20 11:47:41;;;;;;;4.53;1.83;;;;;;;23.22;41.53;101580.75;5074378;28;20033;-63
2022/06/20 11:50:31;;;;;;;4.75;1.63;;;;;;;23.24;41.42;101568.16;5073832;28;20020;-63
2022/06/20 11:53:08;;;;;;;7.30;2.40;;;;;;;23.24;41.47;101581.47;5074905;28;20020;-63
2022/06/20 11:56:00;;;;;;;4.28;1.67;;;;;;;23.24;41.78;101565.50;5074619;28;20052;-63
2022/06/20 11:58:48;;;;;;;4.95;1.50;;;;;;;23.26;41.38;101568.84;5073298;28;20056;-63
2022/06/20 12:01:24;;;;;;;4.28;1.55;;;;;;;23.27;41.72;101564.38;5034214;28;20033;-63
2022/06/20 12:04:15;;;;;;;4.00;1.35;;;;;;;23.26;41.68;101565.38;5074422;28;20016;-63
2022/06/20 12:07:00;;;;;;;4.07;1.40;;;;;;;23.27;41.26;101559.06;5074299;28;20383;-63
2022/06/20 12:09:38;;;;;;;;;;;;;;;23.27;41.39;101572.34;5074315;28;20441;-64
2022/06/20 12:12:18;;;;;;;4.30;1.60;;;;;;;23.28;41.31;101579.34;5072726;28;20430;-63
2022/06/20 12:15:02;;;;;;;5.90;1.88;;;;;;;23.26;41.35;101579.50;5073972;28;20033;-62
2022/06/20 12:17:39;;;;;;;3.47;1.25;;;;;;;23.27;41.53;101573.19;5073660;28;20020;-61
2022/06/20 12:23:21;;;;;;;4.65;1.50;;;;;;;23.29;41.64;101557.94;5074002;28;20081;-62
2022/06/20 12:26:17;;;;;;;4.57;1.30;;;;;;;23.28;41.70;101556.25;5073269;28;20378;-62
2022/06/20 12:28:45;;;;;;;4.03;1.40;;;;;;;23.30;41.75;101561.44;5072881;28;20119;-61
2022/06/20 12:31:17;;;;;;;3.33;1.40;;;;;;;23.30;41.53;101556.94;5073439;28;20017;-61